Time;durP1;ratioP1;P1;durP2;ratioP2;P2;SDS_P1;SDS_P2;PMS_P1;PMS_P2;Temp;Humidity;BMP_temperature;BMP_pressure;BME280_temperature;BME280_humidity;BME280_pressure;Samples;Min_cycle;Max_cycle;Signal;HPM_P1;HPM_P2
2022/06/12 00:00:11;;;;;;;4.80;4.40;;;;;;;19.55;63.91;99369.59;5020160;28;20066;-76
2022/06/12 00:02:37;;;;;;;5.53;4.00;;;;;;;19.41;63.88;99361.44;5002640;28;20049;-76
2022/06/12 00:05:03;;;;;;;7.18;5.43;;;;;;;18.80;68.67;99365.22;5003798;28;20413;-76
2022/06/12 00:07:28;;;;;;;5.85;5.35;;;;;;;17.82;71.75;99362.94;5004242;28;20038;-76
2022/06/12 00:09:54;;;;;;;6.60;6.03;;;;;;;18.08;70.34;99350.81;4975567;28;20036;-76
2022/06/12 00:12:19;;;;;;;4.65;4.13;;;;;;;18.77;66.03;99358.47;4987482;28;20038;-76
2022/06/12 00:14:45;;;;;;;4.63;4.15;;;;;;;18.95;65.23;99352.28;5008046;28;20385;-76
2022/06/12 00:17:11;;;;;;;4.88;4.47;;;;;;;18.89;66.19;99360.75;5007659;28;20520;-76
2022/06/12 00:19:37;;;;;;;5.93;5.40;;;;;;;18.63;67.67;99366.47;5005249;28;20034;-76
2022/06/12 00:22:03;;;;;;;5.55;4.80;;;;;;;18.56;66.54;99349.81;5004080;28;20081;-76
2022/06/12 00:24:29;;;;;;;5.95;4.90;;;;;;;18.66;65.55;99363.19;5006174;28;20026;-76
2022/06/12 00:26:56;;;;;;;5.65;5.15;;;;;;;18.34;68.92;99360.28;5004404;28;20061;-76
2022/06/12 00:29:26;;;;;;;4.07;3.78;;;;;;;18.69;65.86;99354.53;5005272;28;20026;-76
2022/06/12 00:31:56;;;;;;;4.70;4.40;;;;;;;18.67;65.80;99350.50;5005054;28;20037;-76
2022/06/12 00:34:26;;;;;;;6.10;4.00;;;;;;;19.13;64.78;99356.91;5007523;28;20462;-76
2022/06/12 00:36:53;;;;;;;4.82;4.32;;;;;;;18.98;64.78;99346.28;5016143;28;20030;-76
2022/06/12 00:39:19;;;;;;;4.47;4.07;;;;;;;18.89;65.51;99358.88;4989729;28;20030;-76
2022/06/12 00:41:47;;;;;;;5.07;4.60;;;;;;;19.32;64.28;99355.03;5005422;28;20437;-76
2022/06/12 00:44:16;;;;;;;5.18;4.70;;;;;;;19.21;64.49;99360.88;5004435;28;20491;-76
2022/06/12 00:46:48;;;;;;;4.93;3.97;;;;;;;19.10;64.90;99357.50;5005546;28;20087;-76
2022/06/12 00:49:19;;;;;;;6.13;4.95;;;;;;;18.33;69.93;99358.66;5005758;28;20113;-76
2022/06/12 00:51:47;;;;;;;5.05;4.65;;;;;;;19.22;64.65;99347.03;5006654;28;20037;-76
2022/06/12 00:54:13;;;;;;;4.55;4.18;;;;;;;19.06;65.17;99356.47;5005346;28;20040;-77
2022/06/12 00:56:47;;;;;;;4.93;4.53;;;;;;;19.06;65.55;99364.59;5005609;28;20025;-76
2022/06/12 00:59:38;;;;;;;4.72;4.30;;;;;;;19.15;65.27;99375.56;5003571;28;20053;-76
2022/06/12 01:02:05;;;;;;;4.95;4.32;;;;;;;19.11;65.59;99383.44;4988813;28;20038;-76
2022/06/12 01:07:19;;;;;;;9.35;5.82;;;;;;;18.30;69.84;99385.47;5004882;28;20083;-76
2022/06/12 01:09:48;;;;;;;7.88;5.22;;;;;;;17.64;72.40;99367.13;5004326;28;20405;-76
2022/06/12 01:12:22;;;;;;;6.43;5.38;;;;;;;17.45;73.28;99366.13;5005152;28;20057;-76
2022/06/12 01:14:55;;;;;;;6.10;4.90;;;;;;;17.57;73.15;99363.13;5008430;28;20485;-76
2022/06/12 01:17:23;;;;;;;5.40;4.90;;;;;;;17.86;70.68;99350.47;5003982;28;20038;-76
2022/06/12 01:19:55;;;;;;;6.05;3.88;;;;;;;18.17;68.38;99353.72;5002779;28;20052;-77
2022/06/12 01:22:57;;;;;;;6.18;5.30;;;;;;;17.76;72.77;99362.16;4999476;28;20049;-76
2022/06/12 01:25:40;;;;;;;6.28;4.47;;;;;;;17.50;73.18;99363.44;5005335;28;20065;-76
2022/06/12 01:28:37;;;;;;;7.28;5.85;;;;;;;17.52;74.02;99353.16;5017216;28;20036;-76
2022/06/12 01:31:28;;;;;;;4.75;4.22;;;;;;;18.12;68.37;99345.66;5003784;28;20030;-76
2022/06/12 01:34:00;;;;;;;5.30;4.47;;;;;;;17.68;71.67;99346.56;5004576;28;20397;-76
2022/06/12 01:36:39;;;;;;;4.47;4.07;;;;;;;18.27;67.67;99345.50;5001966;28;20029;-76
2022/06/12 01:39:39;;;;;;;6.47;4.72;;;;;;;18.59;66.94;99349.22;5000584;28;20030;-76
2022/06/12 01:42:22;;;;;;;4.55;4.15;;;;;;;18.74;66.01;99356.31;5004072;28;20018;-76
2022/06/12 01:44:54;;;;;;;7.43;4.50;;;;;;;18.78;66.10;99360.09;5017865;28;20034;-76
2022/06/12 01:47:44;;;;;;;4.90;3.70;;;;;;;18.78;66.59;99376.31;5001112;28;20051;-76
2022/06/12 01:50:47;;;;;;;4.80;4.43;;;;;;;18.78;67.34;99397.97;5004121;28;20374;-76
2022/06/12 01:53:19;;;;;;;5.63;4.50;;;;;;;18.70;67.56;99401.28;5003281;28;20478;-76
2022/06/12 01:55:51;;;;;;;11.35;5.43;;;;;;;18.45;70.19;99410.47;5007910;28;20030;-76
2022/06/12 01:58:45;;;;;;;13.75;7.10;;;;;;;16.75;80.01;99355.75;5006725;28;20456;-77
2022/06/12 02:01:17;;;;;;;14.25;7.68;;;;;;;16.85;80.38;99361.09;5010073;28;20033;-77
2022/06/12 02:04:04;;;;;;;11.75;5.32;;;;;;;17.92;70.86;99358.25;5006830;28;21379;-77
2022/06/12 02:06:38;;;;;;;8.02;5.13;;;;;;;18.29;69.73;99354.13;5007698;28;20025;-77
2022/06/12 02:09:23;;;;;;;7.40;4.82;;;;;;;18.37;70.11;99364.31;5009282;28;20375;-77
2022/06/12 02:14:58;;;;;;;7.10;5.70;;;;;;;18.52;69.30;99347.97;5012303;28;20111;-77
2022/06/12 02:17:32;;;;;;;9.80;6.10;;;;;;;18.03;75.09;99350.88;5006461;28;20120;-77
2022/06/12 02:19:58;;;;;;;9.45;6.32;;;;;;;18.07;72.83;99346.50;5023232;28;20021;-77
2022/06/12 02:22:28;;;;;;;8.90;5.35;;;;;;;18.09;73.61;99349.72;5004942;28;20382;-77
2022/06/12 02:24:59;;;;;;;6.13;4.90;;;;;;;17.85;74.99;99362.34;5009457;28;20037;-77
2022/06/12 02:27:31;;;;;;;7.32;4.82;;;;;;;18.25;70.12;99353.91;5005403;28;20571;-77
2022/06/12 02:30:02;;;;;;;6.80;5.38;;;;;;;18.34;70.32;99354.06;5009916;28;20030;-77
2022/06/12 02:32:36;;;;;;;8.38;4.65;;;;;;;18.33;70.62;99352.44;5005786;28;20049;-77
2022/06/12 02:35:10;;;;;;;8.70;5.10;;;;;;;18.38;70.50;99352.41;5008419;28;20485;-77
2022/06/12 02:37:42;;;;;;;5.43;4.68;;;;;;;18.37;70.11;99356.22;5003560;28;20180;-77
2022/06/12 02:40:19;;;;;;;7.65;4.72;;;;;;;18.51;70.15;99370.66;5027360;28;20017;-77
2022/06/12 02:42:48;;;;;;;10.00;6.47;;;;;;;17.37;79.95;99360.53;5009158;28;20068;-76
2022/06/12 02:45:16;;;;;;;7.45;5.97;;;;;;;17.16;79.53;99363.38;5003592;28;20061;-77
2022/06/12 02:47:43;;;;;;;13.27;7.40;;;;;;;16.44;83.45;99344.25;5001048;28;20390;-77
2022/06/12 02:50:13;;;;;;;15.25;8.45;;;;;;;16.14;84.94;99355.88;4994493;28;20030;-76
2022/06/12 02:53:04;;;;;;;7.80;5.82;;;;;;;16.63;82.11;99361.44;5003378;28;20477;-77
2022/06/12 02:55:57;;;;;;;12.40;6.78;;;;;;;17.10;78.78;99359.06;5021473;28;20025;-76
2022/06/12 02:58:31;;;;;;;10.57;7.18;;;;;;;16.93;81.35;99368.59;5003507;28;20052;-76
2022/06/12 03:01:05;;;;;;;7.07;5.32;;;;;;;16.65;81.37;99370.06;5013548;28;20077;-76
2022/06/12 03:03:46;;;;;;;8.63;7.05;;;;;;;16.79;80.82;99356.81;5008205;28;20021;-76
2022/06/12 03:06:12;;;;;;;5.38;4.90;;;;;;;17.18;76.83;99368.47;5019681;28;20045;-76
2022/06/12 03:08:42;;;;;;;5.85;4.93;;;;;;;18.06;71.87;99363.00;5003363;28;20710;-76
2022/06/12 03:11:10;;;;;;;10.27;6.15;;;;;;;17.64;77.65;99372.53;5006743;28;20038;-76
2022/06/12 03:13:37;;;;;;;7.30;5.85;;;;;;;17.27;78.69;99360.59;5007605;28;20091;-76
2022/06/12 03:16:08;;;;;;;8.20;4.75;;;;;;;17.97;73.06;99352.78;5009642;28;20028;-76
2022/06/12 03:18:38;;;;;;;8.43;4.70;;;;;;;18.21;71.88;99360.97;5007347;28;20079;-76
2022/06/12 03:21:25;;;;;;;4.60;4.20;;;;;;;18.07;71.93;99364.59;5002013;28;20077;-76
2022/06/12 03:24:05;;;;;;;7.00;6.40;;;;;;;17.27;79.79;99366.81;5004008;28;20036;-77
2022/06/12 03:26:57;;;;;;;8.65;6.35;;;;;;;16.69;82.32;99362.22;5005671;28;20486;-76
2022/06/12 03:29:32;;;;;;;9.77;7.13;;;;;;;16.31;83.89;99372.56;5005769;28;20500;-76
2022/06/12 03:32:08;;;;;;;9.98;5.80;;;;;;;17.03;78.46;99363.97;5006645;28;20022;-76
2022/06/12 03:35:10;;;;;;;7.68;6.20;;;;;;;17.00;79.57;99379.91;5006750;28;20072;-76
2022/06/12 03:37:44;;;;;;;20.02;9.15;;;;;;;16.59;81.45;99370.34;4998856;28;20315;-76
2022/06/12 03:40:20;;;;;;;5.78;4.72;;;;;;;16.53;81.68;99366.88;5004303;28;20029;-76
2022/06/12 03:43:09;;;;;;;6.55;5.50;;;;;;;16.80;79.25;99370.00;5008307;28;20385;-77
2022/06/12 03:45:45;;;;;;;11.65;7.45;;;;;;;16.48;82.86;99378.44;5005251;28;20079;-76
2022/06/12 03:48:29;;;;;;;7.93;6.10;;;;;;;16.38;82.54;99375.75;5001978;28;20111;-76
2022/06/12 03:51:09;;;;;;;9.40;7.03;;;;;;;16.43;84.66;99383.84;5002092;28;20030;-77
2022/06/12 03:53:38;;;;;;;9.93;8.93;;;;;;;16.10;86.24;99383.63;5005417;28;20026;-76
2022/06/12 03:59:42;;;;;;;4.72;4.32;;;;;;;17.25;76.15;99377.84;5003645;28;20044;-76
2022/06/12 04:02:13;;;;;;;6.68;4.43;;;;;;;17.70;73.30;99374.09;5005846;28;20029;-76
2022/06/12 04:04:42;;;;;;;9.27;4.38;;;;;;;17.80;72.58;99365.13;5006163;28;20030;-77
2022/06/12 04:07:10;;;;;;;5.47;3.97;;;;;;;17.75;72.79;99365.97;5005857;28;20032;-76
2022/06/12 04:09:43;;;;;;;4.40;4.00;;;;;;;17.76;73.03;99364.03;5004270;28;20050;-76
2022/06/12 04:12:31;;;;;;;6.65;4.32;;;;;;;18.01;72.16;99371.13;5004161;28;20029;-76
2022/06/12 04:15:15;;;;;;;7.88;3.85;;;;;;;18.06;72.55;99368.41;5006304;28;20022;-76
2022/06/12 04:17:41;;;;;;;5.93;4.47;;;;;;;18.08;72.67;99377.03;5002262;28;20079;-76
2022/06/12 04:20:15;;;;;;;7.03;4.15;;;;;;;18.06;72.68;99380.03;5001890;28;20030;-76
2022/06/12 04:22:40;;;;;;;5.05;4.53;;;;;;;18.17;72.38;99375.31;5003623;28;20025;-76
2022/06/12 04:25:22;;;;;;;4.75;4.00;;;;;;;18.07;73.13;99368.09;5004107;28;20042;-76
2022/06/12 04:27:48;;;;;;;5.45;3.97;;;;;;;18.42;72.01;99378.56;5003971;28;20029;-76
2022/06/12 04:30:22;;;;;;;6.93;5.18;;;;;;;18.03;78.21;99375.19;5004509;28;20076;-76
2022/06/12 04:32:47;;;;;;;7.38;5.07;;;;;;;17.77;81.48;99376.47;4999253;28;20473;-76
2022/06/12 04:35:13;;;;;;;9.95;5.70;;;;;;;17.65;83.74;99367.91;5007533;28;20114;-76
2022/06/12 04:37:38;;;;;;;6.97;6.03;;;;;;;17.44;83.34;99372.63;5004087;28;20034;-76
2022/06/12 04:40:07;;;;;;;8.95;5.53;;;;;;;17.41;83.81;99372.41;5004500;28;20141;-77
2022/06/12 04:42:33;;;;;;;7.55;5.55;;;;;;;17.50;84.21;99374.25;5005149;28;20044;-77
2022/06/12 04:45:00;;;;;;;7.47;5.80;;;;;;;17.70;84.27;99379.50;5006600;28;20026;-76
2022/06/12 04:47:28;;;;;;;7.25;5.53;;;;;;;17.86;83.44;99374.78;5005032;28;20037;-76
2022/06/12 04:49:55;;;;;;;9.32;4.95;;;;;;;17.89;82.25;99366.91;5007094;28;20041;-76
2022/06/12 04:52:23;;;;;;;5.80;5.20;;;;;;;18.04;82.86;99360.59;5002369;28;20030;-76
2022/06/12 04:54:49;;;;;;;10.15;6.78;;;;;;;18.14;83.78;99362.38;5006973;28;20034;-76
2022/06/12 04:57:16;;;;;;;11.25;5.00;;;;;;;18.28;83.48;99366.03;5004901;28;20026;-76
2022/06/12 04:59:43;;;;;;;7.10;4.97;;;;;;;18.40;82.34;99363.72;5006307;28;20039;-76
2022/06/12 05:02:10;;;;;;;7.78;5.50;;;;;;;18.37;80.96;99358.91;4999635;28;20064;-76
2022/06/12 05:04:36;;;;;;;9.77;6.68;;;;;;;18.53;81.21;99363.88;5004040;28;20140;-76
2022/06/12 05:07:03;;;;;;;8.57;5.80;;;;;;;18.41;79.51;99359.94;5004319;28;20137;-76
2022/06/12 05:09:33;;;;;;;10.90;5.72;;;;;;;18.42;79.54;99364.25;5007960;28;20393;-76
2022/06/12 05:11:58;;;;;;;10.20;5.55;;;;;;;18.51;80.63;99365.25;5003526;28;20072;-76
2022/06/12 05:14:24;;;;;;;7.38;5.80;;;;;;;18.33;78.78;99371.38;5005044;28;20057;-76
2022/06/12 05:16:53;;;;;;;9.68;6.55;;;;;;;18.22;80.97;99367.16;5006896;28;20113;-76
2022/06/12 05:19:23;;;;;;;11.85;6.40;;;;;;;18.24;81.01;99370.41;5004077;28;20022;-76
2022/06/12 05:21:49;;;;;;;12.40;6.97;;;;;;;18.24;79.94;99362.28;5003567;28;20040;-76
2022/06/12 05:24:15;;;;;;;13.43;6.65;;;;;;;18.38;78.82;99355.91;5003204;28;20037;-76
2022/06/12 05:26:43;;;;;;;7.75;6.10;;;;;;;18.30;79.61;99369.25;5006487;28;20088;-76
2022/06/12 05:29:14;;;;;;;7.70;6.70;;;;;;;18.52;80.33;99377.69;5005450;28;20045;-76
2022/06/12 05:31:40;;;;;;;9.98;5.97;;;;;;;18.34;79.79;99362.19;5004958;28;20065;-76
2022/06/12 05:34:05;;;;;;;12.85;5.95;;;;;;;18.17;79.11;99375.31;4990338;28;20157;-76
2022/06/12 05:36:31;;;;;;;15.50;6.63;;;;;;;18.27;80.52;99372.50;4986760;28;20048;-76
2022/06/12 05:38:56;;;;;;;8.88;6.18;;;;;;;18.13;80.88;99374.28;4989336;28;20034;-76
2022/06/12 05:41:22;;;;;;;8.80;6.50;;;;;;;18.02;81.02;99370.06;5006475;28;20026;-76
2022/06/12 05:43:47;;;;;;;6.82;4.75;;;;;;;18.27;78.66;99365.22;5001973;28;20038;-76
2022/06/12 05:46:16;;;;;;;18.05;5.88;;;;;;;18.39;76.45;99365.63;4988587;28;20054;-76
2022/06/12 05:48:42;;;;;;;6.18;4.05;;;;;;;18.97;73.73;99368.22;5003793;28;20025;-76
2022/06/12 05:51:11;;;;;;;8.07;4.50;;;;;;;19.20;73.38;99373.59;5007691;28;20045;-76
2022/06/12 05:53:36;;;;;;;11.45;4.75;;;;;;;19.28;76.10;99375.66;5005630;28;20111;-76
2022/06/12 05:56:07;;;;;;;5.80;4.25;;;;;;;19.30;74.51;99367.25;5005392;28;20497;-76
2022/06/12 05:58:32;;;;;;;4.65;3.83;;;;;;;19.48;71.47;99341.28;5001995;28;20061;-76
2022/06/12 06:00:58;;;;;;;7.57;3.97;;;;;;;19.43;74.00;99366.53;5002980;28;20533;-76
2022/06/12 06:03:24;;;;;;;7.60;4.95;;;;;;;19.28;74.07;99369.44;5000655;28;20522;-76
2022/06/12 06:05:50;;;;;;;6.70;3.35;;;;;;;19.65;70.70;99352.41;5003822;28;20025;-76
2022/06/12 06:08:17;;;;;;;11.07;4.10;;;;;;;18.89;72.90;99369.69;5005428;28;20030;-76
2022/06/12 06:10:43;;;;;;;6.22;3.60;;;;;;;19.51;72.25;99365.88;5001477;28;20084;-77
2022/06/12 06:13:09;;;;;;;11.55;4.25;;;;;;;18.91;71.98;99381.03;5002227;28;20034;-76
2022/06/12 06:15:35;;;;;;;12.10;4.68;;;;;;;18.50;70.44;99364.44;4988297;28;20030;-76
2022/06/12 06:18:00;;;;;;;8.57;4.18;;;;;;;18.58;70.80;99371.13;5004517;28;20389;-76
2022/06/12 06:20:34;;;;;;;15.30;4.65;;;;;;;18.58;71.56;99377.34;5002788;28;20030;-76
2022/06/12 06:23:00;;;;;;;6.18;3.83;;;;;;;18.55;71.54;99380.63;4996522;28;20506;-76
2022/06/12 06:25:27;;;;;;;9.02;4.07;;;;;;;18.33;67.06;99382.19;4999807;28;20391;-76
2022/06/12 06:27:53;;;;;;;7.28;4.05;;;;;;;19.07;71.80;99384.31;5001710;28;20026;-76
2022/06/12 06:30:20;;;;;;;10.25;4.35;;;;;;;19.50;70.34;99377.00;5006481;28;20033;-76
2022/06/12 06:32:45;;;;;;;15.82;4.90;;;;;;;19.48;67.92;99373.78;5005802;28;20034;-76
2022/06/12 06:35:11;;;;;;;15.02;4.93;;;;;;;18.47;69.87;99378.56;4990436;28;20041;-76
2022/06/12 06:37:38;;;;;;;6.63;3.90;;;;;;;18.92;70.40;99381.81;5011116;28;20493;-76
2022/06/12 06:40:06;;;;;;;16.02;5.07;;;;;;;18.74;70.01;99388.00;5022855;28;20384;-76
2022/06/12 06:42:32;;;;;;;10.88;4.82;;;;;;;18.66;70.08;99384.84;5021347;28;20453;-76
2022/06/12 06:47:42;;;;;;;14.18;5.05;;;;;;;18.87;70.28;99381.91;5006359;28;20100;-76
2022/06/12 06:50:10;;;;;;;12.18;4.85;;;;;;;18.97;68.03;99381.75;5008844;28;20478;-76
2022/06/12 06:52:36;;;;;;;11.50;4.60;;;;;;;18.83;66.48;99364.63;5005849;28;20169;-77
2022/06/12 06:55:03;;;;;;;15.48;4.40;;;;;;;18.35;68.88;99390.81;5002500;28;20049;-76
2022/06/12 06:57:28;;;;;;;11.98;4.18;;;;;;;18.43;66.33;99373.97;5007561;28;20531;-76
2022/06/12 06:59:54;;;;;;;11.65;4.32;;;;;;;18.62;69.17;99377.56;4991998;28;20038;-76
2022/06/12 07:02:19;;;;;;;14.10;4.72;;;;;;;19.28;69.88;99385.69;4999896;28;20032;-77
2022/06/12 07:04:45;;;;;;;10.82;3.92;;;;;;;19.22;67.74;99374.09;4989637;28;20034;-77
2022/06/12 07:07:10;;;;;;;14.02;4.10;;;;;;;18.59;65.45;99380.84;4991017;28;20120;-76
2022/06/12 07:09:39;;;;;;;16.17;4.30;;;;;;;19.03;69.15;99378.69;4988900;28;20092;-77
2022/06/12 07:12:05;;;;;;;12.80;4.22;;;;;;;19.36;65.62;99383.16;5008363;28;20065;-77
2022/06/12 07:14:31;;;;;;;17.17;5.03;;;;;;;19.12;65.39;99371.53;5008953;28;20436;-76
2022/06/12 07:16:56;;;;;;;11.60;3.90;;;;;;;19.05;64.49;99362.16;4987717;28;20026;-77
2022/06/12 07:19:24;;;;;;;6.20;3.45;;;;;;;19.56;67.67;99382.06;5003170;28;20030;-77
2022/06/12 07:21:50;;;;;;;9.15;4.55;;;;;;;20.04;67.66;99377.22;5001753;28;20479;-76
2022/06/12 07:24:15;;;;;;;12.25;4.40;;;;;;;19.65;63.87;99365.94;5006469;28;20216;-76
2022/06/12 07:26:45;;;;;;;10.68;4.40;;;;;;;19.33;63.48;99378.28;4988504;28;20517;-76
2022/06/12 07:29:12;;;;;;;12.55;4.10;;;;;;;20.54;66.40;99375.50;5018585;28;20034;-77
2022/06/12 07:31:38;;;;;;;13.82;5.25;;;;;;;20.30;61.86;99381.13;5006153;28;20049;-77
2022/06/12 07:34:03;;;;;;;11.80;4.10;;;;;;;20.39;63.90;99382.03;5002100;28;20033;-77
2022/06/12 07:36:29;;;;;;;12.40;4.20;;;;;;;20.33;63.01;99368.88;5001448;28;20027;-77
2022/06/12 07:38:55;;;;;;;15.43;4.78;;;;;;;20.83;61.85;99392.31;5010406;28;20497;-76
2022/06/12 07:41:21;;;;;;;9.18;5.20;;;;;;;20.98;62.33;99381.16;5006686;28;20030;-77
2022/06/12 07:43:47;;;;;;;17.20;5.00;;;;;;;20.26;62.37;99363.84;5005295;28;20477;-77
2022/06/12 07:46:16;;;;;;;12.57;3.92;;;;;;;21.12;60.82;99375.72;5009222;28;20429;-77
2022/06/12 07:48:42;;;;;;;13.23;4.30;;;;;;;21.15;60.57;99369.69;5001544;28;20026;-77
2022/06/12 07:51:11;;;;;;;32.03;6.60;;;;;;;21.27;60.29;99361.81;5006846;28;20040;-77
2022/06/12 07:53:37;;;;;;;20.23;4.50;;;;;;;21.00;60.89;99365.34;4987279;28;20057;-76
2022/06/12 07:56:04;;;;;;;12.95;4.80;;;;;;;21.29;60.60;99370.47;4990732;28;20037;-76
2022/06/12 07:58:29;;;;;;;17.98;4.55;;;;;;;21.16;60.76;99369.41;4989075;28;20449;-76
2022/06/12 08:00:58;;;;;;;15.35;4.25;;;;;;;20.92;60.35;99393.22;5006555;28;20026;-75
2022/06/12 08:03:25;;;;;;;12.88;4.15;;;;;;;21.01;58.08;99391.41;5006289;28;20034;-76
2022/06/12 08:05:51;;;;;;;10.70;4.32;;;;;;;20.32;59.92;99392.47;4997529;28;20457;-75
2022/06/12 08:08:18;;;;;;;13.68;4.05;;;;;;;21.21;60.92;99382.84;5000082;28;20065;-76
2022/06/12 08:10:44;;;;;;;17.33;3.88;;;;;;;21.75;59.51;99390.03;4999594;28;20073;-76
2022/06/12 08:13:11;;;;;;;15.02;4.28;;;;;;;21.98;59.18;99397.09;4987982;28;20490;-75
2022/06/12 08:15:38;;;;;;;13.30;3.75;;;;;;;21.92;59.37;99400.25;5004654;28;20484;-75
2022/06/12 08:18:05;;;;;;;16.75;4.07;;;;;;;22.00;59.03;99407.66;5002945;28;20030;-76
2022/06/12 08:20:33;;;;;;;9.88;4.32;;;;;;;22.00;59.31;99408.47;5016323;28;20025;-75
2022/06/12 08:23:04;;;;;;;12.10;3.67;;;;;;;22.12;58.93;99408.72;5003759;28;20037;-76
2022/06/12 08:25:33;;;;;;;12.65;4.05;;;;;;;22.01;58.78;99396.50;5002811;28;20102;-76
2022/06/12 08:28:00;;;;;;;7.97;4.38;;;;;;;21.85;59.65;99397.16;4985087;28;20049;-76
2022/06/12 08:30:25;;;;;;;8.95;3.47;;;;;;;22.05;58.61;99404.84;5002475;28;20148;-76
2022/06/12 08:32:53;;;;;;;11.13;3.40;;;;;;;22.20;58.90;99399.81;5003936;28;20171;-75
2022/06/12 08:35:24;;;;;;;14.35;4.35;;;;;;;22.34;58.94;99408.69;5002294;28;20395;-76
2022/06/12 08:37:50;;;;;;;10.40;3.42;;;;;;;22.29;58.30;99399.88;4985238;28;20118;-76
2022/06/12 08:40:23;;;;;;;9.50;3.80;;;;;;;22.27;60.27;99399.38;4986132;28;20033;-76
2022/06/12 08:43:01;;;;;;;8.88;3.80;;;;;;;22.35;58.71;99404.06;5004287;28;20072;-76
2022/06/12 08:45:36;;;;;;;18.88;4.00;;;;;;;22.30;58.46;99398.75;5004722;28;20371;-76
2022/06/12 08:48:15;;;;;;;11.35;4.43;;;;;;;21.82;58.43;99387.69;5007637;28;20034;-76
2022/06/12 08:50:53;;;;;;;12.13;4.72;;;;;;;21.26;60.17;99387.34;5003513;28;20048;-76
2022/06/12 08:53:34;;;;;;;8.68;3.65;;;;;;;21.56;60.53;99398.34;5003664;28;20022;-76
2022/06/12 08:56:06;;;;;;;11.38;4.18;;;;;;;21.97;59.74;99395.53;5003669;28;20030;-76
2022/06/12 08:58:54;;;;;;;12.23;3.80;;;;;;;21.97;59.88;99389.28;5005365;28;20036;-76
2022/06/12 09:01:19;;;;;;;10.82;3.75;;;;;;;21.86;60.17;99385.19;5010196;28;20033;-76
2022/06/12 09:03:49;;;;;;;12.68;3.85;;;;;;;21.97;59.36;99367.53;5002317;28;20065;-76
2022/06/12 09:06:37;;;;;;;12.82;4.30;;;;;;;21.92;60.27;99384.75;5004880;28;20746;-76
2022/06/12 09:09:23;;;;;;;9.20;3.45;;;;;;;22.25;57.95;99380.66;5003195;28;20026;-76
2022/06/12 09:11:51;;;;;;;;;;;;;;;22.34;57.86;99376.03;5004560;28;20022;-76
2022/06/12 09:15:10;;;;;;;9.38;3.83;;;;;;;22.41;57.55;99375.59;5005120;28;20005;-76
2022/06/12 09:17:45;;;;;;;9.23;4.13;;;;;;;22.37;56.22;99372.69;4981639;28;20042;-76
2022/06/12 09:20:29;;;;;;;11.23;3.65;;;;;;;22.60;56.41;99367.25;5004292;28;20038;-76
2022/06/12 09:23:13;;;;;;;12.13;3.55;;;;;;;22.70;57.20;99380.56;5001818;28;20152;-76
2022/06/12 09:25:49;;;;;;;8.45;3.33;;;;;;;22.67;56.57;99373.03;5002902;28;20030;-75
2022/06/12 09:28:28;;;;;;;11.60;3.67;;;;;;;22.64;56.51;99373.66;5018644;28;20029;-76
2022/06/12 09:31:09;;;;;;;9.73;3.13;;;;;;;22.58;56.86;99364.00;5020862;28;20032;-76
2022/06/12 09:33:59;;;;;;;11.77;4.72;;;;;;;22.60;56.87;99367.25;5009893;28;20025;-76
2022/06/12 09:36:36;;;;;;;10.15;3.30;;;;;;;22.43;57.20;99372.56;5005364;28;20092;-76
2022/06/12 09:39:26;;;;;;;8.57;3.10;;;;;;;22.31;57.44;99359.56;5006862;28;20111;-75
2022/06/12 09:42:05;;;;;;;10.48;3.28;;;;;;;22.48;56.63;99359.63;5017325;28;20125;-76
2022/06/12 09:44:41;;;;;;;7.55;3.20;;;;;;;22.58;56.42;99353.13;5005498;28;20037;-75
2022/06/12 09:47:38;;;;;;;9.05;3.10;;;;;;;22.76;54.73;99344.72;5003829;28;20048;-76
2022/06/12 09:50:10;;;;;;;8.65;2.95;;;;;;;22.83;54.54;99355.13;5023227;28;20030;-75
2022/06/12 09:52:57;;;;;;;9.80;2.95;;;;;;;22.77;54.36;99353.69;5001288;28;20042;-76
2022/06/12 09:55:34;;;;;;;7.25;2.75;;;;;;;22.68;53.65;99347.41;5004677;28;20102;-75
2022/06/12 09:58:20;;;;;;;9.18;2.53;;;;;;;22.90;54.17;99339.97;5006036;28;20033;-76
2022/06/12 10:01:04;;;;;;;8.50;2.85;;;;;;;22.99;52.61;99338.06;5003238;28;20481;-75
2022/06/12 10:03:41;;;;;;;8.10;2.63;;;;;;;22.95;52.40;99337.09;5006034;28;20025;-76
2022/06/12 10:06:23;;;;;;;6.38;2.75;;;;;;;23.01;52.73;99332.28;5019410;28;20385;-76
2022/06/12 10:09:08;;;;;;;8.85;3.05;;;;;;;23.27;51.91;99335.03;5004645;28;20112;-76
2022/06/12 10:11:56;;;;;;;6.80;2.53;;;;;;;23.23;52.42;99321.25;5027640;28;20022;-76
2022/06/12 10:14:35;;;;;;;6.45;2.45;;;;;;;23.30;52.00;99327.03;5007867;28;20065;-76
2022/06/12 10:17:15;;;;;;;12.82;3.50;;;;;;;23.22;51.98;99319.63;5007311;28;20026;-76
2022/06/12 10:19:48;;;;;;;7.78;2.95;;;;;;;23.37;51.17;99319.19;5009768;28;20480;-76
2022/06/12 10:22:21;;;;;;;7.40;2.85;;;;;;;23.46;51.49;99308.31;5005672;28;20366;-76
2022/06/12 10:24:47;;;;;;;9.18;3.00;;;;;;;23.36;51.57;99306.72;5005577;28;20493;-76
2022/06/12 10:27:15;;;;;;;8.88;3.00;;;;;;;23.48;51.43;99315.03;5006027;28;20109;-76
2022/06/12 10:30:03;;;;;;;5.00;2.38;;;;;;;23.54;51.47;99311.03;5008896;28;21560;-76
2022/06/12 10:32:48;;;;;;;3.83;2.40;;;;;;;23.40;48.30;99295.97;5006486;28;20026;-76
2022/06/12 10:35:19;;;;;;;9.07;2.65;;;;;;;23.67;49.83;99288.25;5004567;28;20095;-76
2022/06/12 10:37:45;;;;;;;8.32;2.90;;;;;;;23.54;50.02;99300.13;5008835;28;20403;-76
2022/06/12 10:40:18;;;;;;;10.13;2.67;;;;;;;23.84;49.61;99299.13;5003413;28;20040;-76
2022/06/12 10:43:17;;;;;;;8.10;3.08;;;;;;;23.81;49.36;99288.03;5002025;28;20470;-76
2022/06/12 10:45:42;;;;;;;9.55;2.55;;;;;;;24.00;48.41;99284.97;5000949;28;20033;-76
2022/06/12 10:48:26;;;;;;;10.15;2.80;;;;;;;24.22;48.03;99296.44;4999688;28;20026;-76
2022/06/12 10:50:58;;;;;;;9.30;3.05;;;;;;;24.15;48.58;99277.06;5001434;28;20474;-76
2022/06/12 10:53:26;;;;;;;5.85;2.53;;;;;;;24.35;47.93;99283.72;5001675;28;20026;-76
2022/06/12 10:56:12;;;;;;;11.02;3.42;;;;;;;24.43;47.44;99288.34;5008137;28;20034;-76
2022/06/12 10:58:58;;;;;;;8.68;2.33;;;;;;;24.39;47.65;99296.41;4996805;28;20036;-76
2022/06/12 11:01:29;;;;;;;10.23;2.85;;;;;;;24.55;45.10;99283.78;5000771;28;20029;-76
2022/06/12 11:04:03;;;;;;;5.30;2.80;;;;;;;24.77;46.29;99279.97;5002536;28;20030;-76
2022/06/12 11:06:51;;;;;;;5.45;2.63;;;;;;;24.86;45.73;99277.19;5003218;28;20301;-76
2022/06/12 11:09:40;;;;;;;6.03;2.13;;;;;;;24.88;45.45;99272.22;5005619;28;20569;-75
2022/06/12 11:12:42;;;;;;;4.70;2.67;;;;;;;24.94;45.43;99268.16;5013584;28;20053;-76
2022/06/12 11:15:20;;;;;;;6.35;2.55;;;;;;;24.84;45.35;99266.63;5003555;28;20049;-76
2022/06/12 11:18:08;;;;;;;5.05;2.30;;;;;;;25.34;46.30;99274.72;5012903;28;20390;-76
2022/06/12 11:21:04;;;;;;;6.35;2.53;;;;;;;25.59;45.02;99273.75;5017976;28;20054;-76
2022/06/12 11:24:04;;;;;;;10.93;2.80;;;;;;;25.82;45.53;99260.47;4995174;28;20040;-76
2022/06/12 11:26:42;;;;;;;6.60;2.20;;;;;;;25.71;44.75;99267.50;4984833;28;20733;-75
2022/06/12 11:29:38;;;;;;;7.18;2.33;;;;;;;26.05;44.31;99261.66;5002975;28;20107;-76
2022/06/12 11:32:20;;;;;;;3.95;2.30;;;;;;;26.36;43.87;99256.47;4994823;28;20036;-76
2022/06/12 11:35:00;;;;;;;8.30;2.90;;;;;;;26.18;44.59;99267.97;4999769;28;21723;-76
2022/06/12 11:37:31;;;;;;;5.00;2.63;;;;;;;26.45;43.64;99259.09;4998357;28;20044;-76
2022/06/12 11:40:22;;;;;;;5.40;2.58;;;;;;;26.49;40.93;99255.31;4999752;28;20038;-76
2022/06/12 11:43:25;;;;;;;7.72;2.67;;;;;;;26.68;43.95;99247.31;4998229;28;20375;-77
2022/06/12 11:46:19;;;;;;;4.32;2.15;;;;;;;26.93;43.11;99250.03;4996587;28;20416;-77
2022/06/12 11:49:09;;;;;;;6.65;2.30;;;;;;;26.99;42.71;99240.44;4998897;28;20071;-76
2022/06/12 11:51:50;;;;;;;9.23;2.78;;;;;;;27.26;42.17;99234.19;4996239;28;20034;-76
2022/06/12 11:54:34;;;;;;;5.10;2.13;;;;;;;27.13;42.19;99235.38;5014529;28;20029;-76
2022/06/12 11:57:02;;;;;;;3.85;2.10;;;;;;;27.24;41.80;99237.25;4999624;28;20033;-76
2022/06/12 11:59:56;;;;;;;5.60;2.40;;;;;;;27.36;41.43;99228.22;5004589;28;20018;-76
2022/06/12 12:02:40;;;;;;;4.20;2.08;;;;;;;27.56;41.27;99229.94;5008437;28;20033;-76
2022/06/12 12:05:36;;;;;;;4.05;2.03;;;;;;;27.54;41.86;99224.03;5005380;28;20049;-76
2022/06/12 12:08:33;;;;;;;4.40;2.10;;;;;;;27.63;40.85;99221.88;4999393;28;20026;-76
2022/06/12 12:11:10;;;;;;;3.65;1.83;;;;;;;27.67;40.76;99217.31;5002317;28;20493;-76
2022/06/12 12:13:45;;;;;;;4.35;2.28;;;;;;;28.19;40.24;99209.66;5002417;28;20120;-76